createdAt,value
2023-04-18T00:00:59.459Z,9.36
2023-04-18T00:03:33.991Z,9.34
2023-04-18T00:06:12.698Z,9.34
2023-04-18T00:09:09.157Z,9.32
2023-04-18T00:11:46.378Z,9.29
2023-04-18T00:14:24.394Z,9.26
2023-04-18T00:16:55.571Z,9.25
2023-04-18T00:19:24.127Z,9.27
2023-04-18T00:21:57.723Z,9.26
2023-04-18T00:24:33.478Z,9.22
2023-04-18T00:27:12.400Z,9.19
2023-04-18T00:29:46.110Z,9.20
2023-04-18T00:32:20.437Z,9.16
2023-04-18T00:34:49.218Z,9.17
2023-04-18T00:37:23.133Z,9.20
2023-04-18T00:39:57.235Z,9.22
2023-04-18T00:42:28.154Z,9.22
2023-04-18T00:45:00.823Z,9.20
2023-04-18T00:47:29.672Z,9.18
2023-04-18T00:50:00.392Z,9.17
2023-04-18T00:52:50.797Z,9.18
2023-04-18T00:55:45.239Z,9.17
2023-04-18T00:58:21.177Z,9.17
2023-04-18T01:00:54.583Z,9.16
2023-04-18T01:03:26.518Z,9.15
2023-04-18T01:06:01.477Z,9.13
2023-04-18T01:08:37.539Z,9.14
2023-04-18T01:11:30.780Z,9.13
2023-04-18T01:14:06.447Z,9.12
2023-04-18T01:16:40.408Z,9.13
2023-04-18T01:19:10.024Z,9.14
2023-04-18T01:21:45.887Z,9.15
2023-04-18T01:24:33.395Z,9.13
2023-04-18T01:27:10.935Z,9.12
2023-04-18T01:30:13.788Z,9.11
2023-04-18T01:32:48.739Z,9.13
2023-04-18T01:35:18.081Z,9.14
2023-04-18T01:37:47.471Z,9.13
2023-04-18T01:40:23.287Z,9.13
2023-04-18T01:42:56.672Z,9.11
2023-04-18T01:45:27.779Z,9.12
2023-04-18T01:47:59.791Z,9.12
2023-04-18T01:50:28.823Z,9.12
2023-04-18T01:53:05.010Z,9.10
2023-04-18T01:55:39.251Z,9.09
2023-04-18T01:58:10.866Z,9.08
2023-04-18T02:00:43.979Z,9.08
2023-04-18T02:03:15.193Z,9.07
2023-04-18T02:05:46.970Z,9.05
2023-04-18T02:08:15.755Z,8.97
2023-04-18T02:10:50.054Z,9.02
2023-04-18T02:13:22.625Z,9.03
2023-04-18T02:16:12.907Z,9.05
2023-04-18T02:18:43.667Z,9.03
2023-04-18T02:21:12.133Z,9.02
2023-04-18T02:23:43.076Z,9.00
2023-04-18T02:26:18.106Z,9.01
2023-04-18T02:28:48.513Z,9.02
2023-04-18T02:31:16.558Z,9.02
2023-04-18T02:33:47.472Z,9.01
2023-04-18T02:36:16.302Z,9.01
2023-04-18T02:38:54.096Z,9.00
2023-04-18T02:41:26.054Z,9.01
2023-04-18T02:43:58.732Z,9.01
2023-04-18T02:46:33.040Z,9.00
2023-04-18T02:49:10.223Z,9.00
2023-04-18T02:51:41.863Z,8.98
2023-04-18T02:54:13.715Z,8.96
2023-04-18T02:56:58.583Z,8.93
2023-04-18T02:59:45.892Z,8.91
2023-04-18T03:02:44.462Z,8.89
2023-04-18T03:05:34.914Z,8.89
2023-04-18T03:08:06.808Z,8.89
2023-04-18T03:10:39.261Z,8.90
2023-04-18T03:13:13.354Z,8.89
2023-04-18T03:15:45.643Z,8.90
2023-04-18T03:18:20.175Z,8.89
2023-04-18T03:21:04.341Z,8.90
2023-04-18T03:23:42.061Z,8.91
2023-04-18T03:26:20.218Z,8.92
2023-04-18T03:29:04.326Z,8.90
2023-04-18T03:31:39.995Z,8.90
2023-04-18T03:34:12.385Z,8.90
2023-04-18T03:36:48.309Z,8.91
2023-04-18T03:39:26.066Z,8.93
2023-04-18T03:41:55.660Z,8.94
2023-04-18T03:44:37.243Z,8.96
2023-04-18T03:47:14.422Z,8.98
2023-04-18T03:50:02.069Z,8.97
2023-04-18T03:52:32.263Z,8.95
2023-04-18T03:55:01.041Z,8.95
2023-04-18T03:57:34.362Z,8.95
2023-04-18T04:00:05.676Z,8.97
2023-04-18T04:02:44.254Z,9.00
2023-04-18T04:05:28.453Z,9.01
2023-04-18T04:07:57.978Z,9.00
2023-04-18T04:10:27.218Z,9.00
2023-04-18T04:12:58.192Z,8.97
2023-04-18T04:15:29.541Z,8.86
2023-04-18T04:18:03.106Z,8.84
2023-04-18T04:20:32.798Z,8.87
2023-04-18T04:23:10.241Z,8.87
2023-04-18T04:25:39.550Z,8.93
2023-04-18T04:28:16.638Z,8.98
2023-04-18T04:31:06.521Z,9.00
2023-04-18T04:33:39.232Z,9.01
2023-04-18T04:36:19.110Z,9.02
2023-04-18T04:38:52.236Z,9.02
2023-04-18T04:41:30.129Z,9.00
2023-04-18T04:44:06.487Z,9.00
2023-04-18T04:46:41.235Z,8.98
2023-04-18T04:49:18.199Z,8.97
2023-04-18T04:51:52.096Z,8.98
2023-04-18T04:54:26.849Z,8.96
2023-04-18T04:56:56.789Z,8.96
2023-04-18T04:59:42.892Z,8.97
2023-04-18T05:02:40.163Z,8.94
2023-04-18T05:05:22.993Z,8.88
2023-04-18T05:08:08.828Z,8.89
2023-04-18T05:10:44.203Z,8.93
2023-04-18T05:13:28.470Z,8.93
2023-04-18T05:16:09.580Z,8.90
2023-04-18T05:19:07.607Z,8.87
2023-04-18T05:22:04.592Z,8.89
2023-04-18T05:24:51.156Z,8.89
2023-04-18T05:27:55.960Z,8.79
2023-04-18T05:30:52.783Z,8.80
2023-04-18T05:33:36.799Z,8.85
2023-04-18T05:36:36.481Z,8.87
2023-04-18T05:39:32.375Z,8.85
2023-04-18T05:42:16.014Z,8.88
2023-04-18T05:45:34.984Z,8.87
2023-04-18T05:48:43.758Z,8.86
2023-04-18T05:51:35.421Z,8.88
2023-04-18T05:54:12.619Z,8.93
2023-04-18T05:57:29.192Z,8.99
2023-04-18T06:00:21.416Z,9.01
2023-04-18T06:02:51.023Z,9.03
2023-04-18T06:05:20.316Z,9.07
2023-04-18T06:08:03.885Z,9.07
2023-04-18T06:10:41.096Z,9.11
2023-04-18T06:13:19.779Z,9.17
2023-04-18T06:16:15.561Z,9.18
2023-04-18T06:18:57.869Z,9.19
2023-04-18T06:21:39.404Z,9.18
2023-04-18T06:24:15.698Z,9.19
2023-04-18T06:26:56.404Z,9.21
2023-04-18T06:29:36.178Z,9.24
2023-04-18T06:32:32.920Z,9.23
2023-04-18T06:35:18.885Z,9.22
2023-04-18T06:38:19.852Z,9.26
2023-04-18T06:40:54.305Z,9.30
2023-04-18T06:43:30.288Z,9.33
2023-04-18T06:46:08.616Z,9.31
2023-04-18T06:48:37.629Z,9.33
2023-04-18T06:51:14.368Z,9.34
2023-04-18T06:53:52.428Z,9.39
2023-04-18T06:56:29.559Z,9.45
2023-04-18T06:58:58.937Z,9.54
2023-04-18T07:01:35.244Z,9.59
2023-04-18T07:04:04.313Z,9.65
2023-04-18T07:06:36.900Z,9.69
2023-04-18T07:09:05.872Z,9.70
2023-04-18T07:11:45.663Z,9.75
2023-04-18T07:14:19.562Z,9.87
2023-04-18T07:16:59.649Z,10.00
2023-04-18T07:19:30.869Z,10.03
2023-04-18T07:22:01.110Z,10.02
2023-04-18T07:24:30.795Z,10.04
2023-04-18T07:27:03.005Z,10.06
2023-04-18T07:29:37.386Z,10.10
2023-04-18T07:32:13.358Z,10.13
2023-04-18T07:34:47.449Z,10.19
2023-04-18T07:37:28.426Z,10.24
2023-04-18T07:39:57.446Z,10.29
2023-04-18T07:42:30.967Z,10.32
2023-04-18T07:45:13.916Z,10.37
2023-04-18T07:47:45.860Z,10.45
2023-04-18T07:50:17.155Z,10.55
2023-04-18T07:52:49.196Z,10.65
2023-04-18T07:55:23.924Z,10.77
2023-04-18T07:58:05.579Z,10.83
2023-04-18T08:00:49.055Z,10.93
2023-04-18T08:03:23.218Z,11.01
2023-04-18T08:06:02.515Z,11.09
2023-04-18T08:08:34.487Z,11.19
2023-04-18T08:11:07.014Z,11.22
2023-04-18T08:13:45.626Z,11.24
2023-04-18T08:16:17.608Z,11.27
2023-04-18T08:19:04.264Z,11.32
2023-04-18T08:21:45.509Z,11.35
2023-04-18T08:24:26.150Z,11.38
2023-04-18T08:27:05.941Z,11.37
2023-04-18T08:29:45.326Z,11.35
2023-04-18T08:32:20.365Z,11.31
2023-04-18T08:34:54.366Z,11.28
2023-04-18T08:37:34.577Z,11.28
2023-04-18T08:40:25.368Z,11.33
2023-04-18T08:43:14.025Z,11.36
2023-04-18T08:45:54.627Z,11.33
2023-04-18T08:48:32.035Z,11.28
2023-04-18T08:51:12.523Z,11.29
2023-04-18T08:53:58.224Z,11.34
2023-04-18T08:56:34.589Z,11.29
2023-04-18T08:59:21.699Z,11.24
2023-04-18T09:01:57.475Z,11.20
2023-04-18T09:04:45.009Z,11.22
2023-04-18T09:07:24.048Z,11.26
2023-04-18T09:09:57.008Z,11.32
2023-04-18T09:12:29.114Z,11.40
2023-04-18T09:15:13.908Z,11.50
2023-04-18T09:17:53.904Z,11.54
2023-04-18T09:20:58.860Z,11.55
2023-04-18T09:23:42.152Z,11.57
2023-04-18T09:26:34.611Z,11.61
2023-04-18T09:29:10.998Z,11.60
2023-04-18T09:32:03.560Z,11.58
2023-04-18T09:34:44.796Z,11.59
2023-04-18T09:37:41.089Z,11.67
2023-04-18T09:40:18.782Z,11.76
2023-04-18T09:42:57.299Z,11.81
2023-04-18T09:46:10.914Z,11.83
2023-04-18T09:48:48.573Z,11.83
2023-04-18T09:51:36.771Z,11.90
2023-04-18T09:54:23.932Z,11.96
2023-04-18T09:56:58.799Z,12.01
2023-04-18T10:00:02.208Z,12.06
2023-04-18T10:03:09.038Z,12.06
2023-04-18T10:05:42.708Z,12.06
2023-04-18T10:08:31.431Z,12.08
2023-04-18T10:11:01.479Z,12.14
2023-04-18T10:13:32.653Z,12.18
2023-04-18T10:16:03.376Z,12.28
2023-04-18T10:18:34.443Z,12.35
2023-04-18T10:21:19.675Z,12.51
2023-04-18T10:23:51.632Z,12.80
2023-04-18T10:26:47.045Z,12.99
2023-04-18T10:29:18.928Z,13.13
2023-04-18T10:31:54.481Z,13.24
2023-04-18T10:34:29.897Z,13.35
2023-04-18T10:37:13.659Z,13.56
2023-04-18T10:39:58.056Z,13.77
2023-04-18T10:42:52.552Z,13.79
2023-04-18T10:45:28.624Z,13.78
2023-04-18T10:48:34.112Z,13.84
2023-04-18T10:51:20.618Z,13.97
2023-04-18T10:54:01.813Z,14.04
2023-04-18T10:56:34.787Z,14.01
2023-04-18T10:59:09.656Z,14.00
2023-04-18T11:01:44.003Z,14.03
2023-04-18T11:04:21.324Z,14.11
2023-04-18T11:06:58.497Z,14.19
2023-04-18T11:09:38.662Z,14.23
2023-04-18T11:12:11.343Z,14.20
2023-04-18T11:14:51.683Z,14.17
2023-04-18T11:17:27.260Z,14.16
2023-04-18T11:20:08.986Z,14.17
2023-04-18T11:22:55.839Z,14.21
2023-04-18T11:25:35.382Z,14.23
2023-04-18T11:28:08.055Z,14.29
2023-04-18T11:30:42.352Z,14.34
2023-04-18T11:33:13.406Z,14.45
2023-04-18T11:35:48.347Z,14.57
2023-04-18T11:38:18.236Z,14.61
2023-04-18T11:40:50.936Z,14.67
2023-04-18T11:43:26.337Z,14.73
2023-04-18T11:46:10.129Z,14.78
2023-04-18T11:48:46.409Z,14.78
2023-04-18T11:51:39.062Z,14.83
2023-04-18T11:54:44.885Z,14.78
2023-04-18T11:57:33.156Z,14.79
2023-04-18T12:00:36.177Z,14.84
2023-04-18T12:03:22.581Z,14.82
2023-04-18T12:06:04.575Z,14.81
2023-04-18T12:08:52.413Z,14.84
2023-04-18T12:11:35.300Z,14.89
2023-04-18T12:14:26.978Z,14.92
2023-04-18T12:17:03.683Z,15.01
2023-04-18T12:19:38.607Z,15.07
2023-04-18T12:22:55.885Z,15.12
2023-04-18T12:25:39.222Z,15.12
2023-04-18T12:28:21.856Z,15.14
2023-04-18T12:30:58.225Z,15.14
2023-04-18T12:33:40.374Z,15.15
2023-04-18T12:36:22.364Z,15.16
2023-04-18T12:39:01.241Z,15.19
2023-04-18T12:41:38.605Z,15.26
2023-04-18T12:44:16.010Z,15.31
2023-04-18T12:47:01.542Z,15.43
2023-04-18T12:49:31.854Z,15.56
2023-04-18T12:52:04.832Z,15.60
2023-04-18T12:54:40.972Z,15.62
2023-04-18T12:57:20.611Z,15.70
2023-04-18T13:00:02.296Z,15.77
2023-04-18T13:02:50.369Z,15.75
2023-04-18T13:05:42.837Z,15.68
2023-04-18T13:08:22.471Z,15.70
2023-04-18T13:11:13.353Z,15.81
2023-04-18T13:14:07.655Z,15.84
2023-04-18T13:16:49.595Z,15.78
2023-04-18T13:19:39.728Z,15.71
2023-04-18T13:22:25.126Z,15.68
2023-04-18T13:25:12.433Z,15.67
2023-04-18T13:27:48.933Z,15.67
2023-04-18T13:30:21.275Z,15.67
2023-04-18T13:32:52.639Z,15.60
2023-04-18T13:35:26.095Z,15.50
2023-04-18T13:38:10.957Z,15.42
2023-04-18T13:41:04.682Z,15.40
2023-04-18T13:43:52.477Z,15.43
2023-04-18T13:46:39.279Z,15.52
2023-04-18T13:49:38.159Z,15.51
2023-04-18T13:52:21.670Z,15.51
2023-04-18T13:55:54.244Z,15.41
2023-04-18T13:58:53.473Z,15.37
2023-04-18T14:01:46.796Z,15.38
2023-04-18T14:04:32.028Z,15.35
2023-04-18T14:07:15.764Z,15.33
2023-04-18T14:09:51.202Z,15.36
2023-04-18T14:12:31.184Z,15.40
2023-04-18T14:15:01.967Z,15.47
2023-04-18T14:17:35.184Z,15.49
2023-04-18T14:20:09.200Z,15.45
2023-04-18T14:22:52.931Z,15.39
2023-04-18T14:25:30.062Z,15.28
2023-04-18T14:28:09.898Z,15.17
2023-04-18T14:30:49.082Z,15.09
2023-04-18T14:33:22.761Z,15.06
2023-04-18T14:35:58.237Z,15.04
2023-04-18T14:38:27.982Z,15.05
2023-04-18T14:41:03.631Z,15.05
2023-04-18T14:43:32.807Z,15.08
2023-04-18T14:46:12.926Z,15.06
2023-04-18T14:48:50.750Z,15.05
2023-04-18T14:51:20.052Z,15.03
2023-04-18T14:53:55.374Z,15.03
2023-04-18T14:56:27.239Z,15.08
2023-04-18T14:58:58.717Z,15.09
2023-04-18T15:01:42.137Z,15.12
2023-04-18T15:04:20.352Z,15.13
2023-04-18T15:07:06.839Z,15.15
2023-04-18T15:10:16.311Z,15.13
2023-04-18T15:14:08.244Z,15.12
2023-04-18T15:17:22.821Z,15.00
2023-04-18T15:20:13.101Z,14.96
2023-04-18T15:22:55.036Z,14.94
2023-04-18T15:25:38.670Z,14.93
2023-04-18T15:28:20.837Z,14.96
2023-04-18T15:30:53.630Z,14.97
2023-04-18T15:33:38.314Z,14.98
2023-04-18T15:36:09.843Z,15.03
2023-04-18T15:38:40.310Z,15.09
2023-04-18T15:42:23.792Z,15.13
2023-04-18T15:45:12.605Z,15.14
2023-04-18T15:47:43.709Z,15.15
2023-04-18T15:50:15.512Z,15.14
2023-04-18T15:52:52.860Z,15.14
2023-04-18T15:55:21.567Z,15.12
2023-04-18T15:57:52.439Z,15.08
2023-04-18T16:00:27.673Z,15.02
2023-04-18T16:03:30.405Z,14.97
2023-04-18T16:06:38.367Z,14.90
2023-04-18T16:09:45.789Z,14.81
2023-04-18T16:12:46.217Z,14.78
2023-04-18T16:15:41.883Z,14.71
2023-04-18T16:18:21.430Z,14.69
2023-04-18T16:21:00.551Z,14.71
2023-04-18T16:23:54.545Z,14.65
2023-04-18T16:26:51.585Z,14.59
2023-04-18T16:29:40.118Z,14.57
2023-04-18T16:32:29.801Z,14.59
2023-04-18T16:35:39.985Z,14.57
2023-04-18T16:38:26.266Z,14.58
2023-04-18T16:41:32.158Z,14.57
2023-04-18T16:45:23.727Z,14.55
2023-04-18T16:48:49.803Z,14.54
2023-04-18T16:51:48.252Z,14.50
2023-04-18T16:54:39.724Z,14.50
2023-04-18T16:57:22.594Z,14.50
2023-04-18T17:00:02.698Z,14.53
2023-04-18T17:02:49.260Z,14.52
2023-04-18T17:05:59.965Z,14.49
2023-04-18T17:08:55.683Z,14.49
2023-04-18T17:11:41.582Z,14.51
2023-04-18T17:14:26.951Z,14.56
2023-04-18T17:17:25.759Z,14.53
2023-04-18T17:20:31.808Z,14.52
2023-04-18T17:23:04.089Z,14.50
2023-04-18T17:25:44.319Z,14.49
2023-04-18T17:28:32.455Z,14.46
2023-04-18T17:31:12.334Z,14.40
2023-04-18T17:33:50.450Z,14.37
2023-04-18T17:36:20.452Z,14.30
2023-04-18T17:39:07.547Z,14.28
2023-04-18T17:41:49.277Z,14.28
2023-04-18T17:44:29.314Z,14.31
2023-04-18T17:47:04.138Z,14.29
2023-04-18T17:49:49.258Z,14.27
2023-04-18T17:52:24.653Z,14.29
2023-04-18T17:54:57.727Z,14.28
2023-04-18T17:57:43.316Z,14.24
2023-04-18T18:00:26.943Z,14.22
2023-04-18T18:03:11.267Z,14.15
2023-04-18T18:05:57.195Z,14.11
2023-04-18T18:08:50.268Z,14.09
2023-04-18T18:11:33.397Z,14.05
2023-04-18T18:14:11.982Z,14.08
2023-04-18T18:16:52.936Z,14.08
2023-04-18T18:22:35.439Z,14.01
2023-04-18T18:25:12.091Z,13.98
2023-04-18T18:27:55.030Z,13.94
2023-04-18T18:30:31.726Z,13.92
2023-04-18T18:33:05.633Z,13.88
2023-04-18T18:35:41.599Z,13.86
2023-04-18T18:38:15.883Z,13.80
2023-04-18T18:40:50.121Z,13.81
2023-04-18T18:43:31.652Z,13.75
2023-04-18T18:46:10.212Z,13.74
2023-04-18T18:48:45.263Z,13.73
2023-04-18T18:51:23.983Z,13.71
2023-04-18T18:54:04.172Z,13.66
2023-04-18T18:56:42.617Z,13.63
2023-04-18T18:59:13.558Z,13.61
2023-04-18T19:01:43.112Z,13.55
2023-04-18T19:04:18.393Z,13.51
2023-04-18T19:06:50.647Z,13.48
2023-04-18T19:09:20.639Z,13.45
2023-04-18T19:11:51.024Z,13.43
2023-04-18T19:14:23.561Z,13.37
2023-04-18T19:16:55.096Z,13.34
2023-04-18T19:19:31.831Z,13.31
2023-04-18T19:22:01.917Z,13.28
2023-04-18T19:24:37.436Z,13.21
2023-04-18T19:27:10.202Z,13.18
2023-04-18T19:29:40.714Z,13.13
2023-04-18T19:32:13.369Z,13.16
2023-04-18T19:34:46.531Z,13.10
2023-04-18T19:37:43.200Z,13.02
2023-04-18T19:40:39.011Z,12.91
2023-04-18T19:43:16.465Z,12.85
2023-04-18T19:46:06.089Z,12.86
2023-04-18T19:48:39.801Z,12.84
2023-04-18T19:51:20.212Z,12.84
2023-04-18T19:53:57.596Z,12.82
2023-04-18T19:56:34.055Z,12.78
2023-04-18T19:59:05.826Z,12.74
2023-04-18T20:01:36.401Z,12.72
2023-04-18T20:04:11.109Z,12.70
2023-04-18T20:06:44.316Z,12.68
2023-04-18T20:09:26.010Z,12.64
2023-04-18T20:12:10.244Z,12.59
2023-04-18T20:14:41.940Z,12.56
2023-04-18T20:17:28.578Z,12.52
2023-04-18T20:20:30.374Z,12.49
2023-04-18T20:23:03.866Z,12.46
2023-04-18T20:25:38.970Z,12.44
2023-04-18T20:28:11.709Z,12.41
2023-04-18T20:30:45.629Z,12.39
2023-04-18T20:33:31.611Z,12.36
2023-04-18T20:36:01.206Z,12.36
2023-04-18T20:38:44.335Z,12.36
2023-04-18T20:41:17.979Z,12.35
2023-04-18T20:43:53.453Z,12.33
2023-04-18T20:46:27.845Z,12.27
2023-04-18T20:49:06.892Z,12.23
2023-04-18T20:51:40.542Z,12.19
2023-04-18T20:54:22.100Z,12.14
2023-04-18T20:57:10.589Z,12.08
2023-04-18T20:59:45.063Z,12.04
2023-04-18T21:02:19.233Z,12.02
2023-04-18T21:04:55.464Z,11.99
2023-04-18T21:07:26.481Z,11.95
2023-04-18T21:10:04.506Z,11.88
2023-04-18T21:12:36.414Z,11.84
2023-04-18T21:15:13.756Z,11.79
2023-04-18T21:18:00.690Z,11.77
2023-04-18T21:20:30.010Z,11.74
2023-04-18T21:23:00.217Z,11.73
2023-04-18T21:25:29.335Z,11.73
2023-04-18T21:28:01.312Z,11.73
2023-04-18T21:30:46.372Z,11.69
2023-04-18T21:33:36.607Z,11.68
2023-04-18T21:36:09.514Z,11.59
2023-04-18T21:38:46.850Z,11.52
2023-04-18T21:41:26.514Z,11.50
2023-04-18T21:44:01.272Z,11.47
2023-04-18T21:46:39.740Z,11.46
2023-04-18T21:49:23.635Z,11.42
2023-04-18T21:51:55.108Z,11.39
2023-04-18T21:54:31.239Z,11.35
2023-04-18T21:57:06.632Z,11.29
2023-04-18T21:59:42.354Z,11.24
2023-04-18T22:02:22.111Z,11.19
2023-04-18T22:04:50.672Z,11.14
2023-04-18T22:07:19.824Z,11.11
2023-04-18T22:09:53.935Z,11.07
2023-04-18T22:12:34.517Z,11.03
2023-04-18T22:15:12.406Z,11.01
2023-04-18T22:17:50.245Z,11.00
2023-04-18T22:20:25.400Z,10.96
2023-04-18T22:23:01.114Z,10.94
2023-04-18T22:25:32.829Z,10.89
2023-04-18T22:28:11.181Z,10.85
2023-04-18T22:30:46.828Z,10.85
2023-04-18T22:33:21.677Z,10.81
2023-04-18T22:35:59.597Z,10.79
2023-04-18T22:38:43.896Z,10.76
2023-04-18T22:41:17.050Z,10.72
2023-04-18T22:43:51.491Z,10.68
2023-04-18T22:46:25.731Z,10.68
2023-04-18T22:48:57.889Z,10.68
2023-04-18T22:51:30.084Z,10.66
2023-04-18T22:54:02.384Z,10.54
2023-04-18T22:56:38.586Z,10.51
2023-04-18T22:59:08.098Z,10.51
2023-04-18T23:01:38.444Z,10.52
2023-04-18T23:04:10.418Z,10.48
2023-04-18T23:06:42.398Z,10.44
2023-04-18T23:09:19.366Z,10.44
2023-04-18T23:12:15.632Z,10.43
2023-04-18T23:14:51.183Z,10.39
2023-04-18T23:17:20.669Z,10.41
2023-04-18T23:19:49.735Z,10.38
2023-04-18T23:22:18.912Z,10.38
2023-04-18T23:24:48.626Z,10.31
2023-04-18T23:27:19.205Z,10.29
2023-04-18T23:29:54.288Z,10.27
2023-04-18T23:32:23.847Z,10.23
2023-04-18T23:34:53.028Z,10.21
2023-04-18T23:37:24.328Z,10.15
2023-04-18T23:39:55.573Z,10.07
2023-04-18T23:42:24.889Z,10.04
2023-04-18T23:44:57.661Z,9.97
2023-04-18T23:47:27.658Z,9.91
2023-04-18T23:49:59.279Z,9.92
2023-04-18T23:52:28.472Z,9.91
2023-04-18T23:55:02.607Z,9.88
2023-04-18T23:57:33.738Z,9.82
